createdAt,value
2023-05-10T00:00:00.298Z,47.53
2023-05-10T00:00:59.910Z,51.40
2023-05-10T00:01:59.949Z,51.72
2023-05-10T00:02:59.983Z,51.24
2023-05-10T00:03:59.945Z,54.46
2023-05-10T00:04:59.859Z,55.11
2023-05-10T00:05:59.896Z,52.69
2023-05-10T00:07:00.463Z,53.17
2023-05-10T00:07:59.826Z,56.72
2023-05-10T00:08:59.818Z,62.68
2023-05-10T00:09:59.793Z,57.52
2023-05-10T00:10:59.825Z,61.39
2023-05-10T00:11:59.768Z,49.95
2023-05-10T00:13:00.145Z,57.36
2023-05-10T00:13:59.761Z,54.14
2023-05-10T00:14:59.738Z,56.24
2023-05-10T00:16:00.574Z,47.70
2023-05-10T00:16:59.812Z,48.34
2023-05-10T00:17:59.839Z,48.18
2023-05-10T00:18:59.717Z,49.15
2023-05-10T00:19:59.728Z,58.01
2023-05-10T00:20:59.659Z,59.14
2023-05-10T00:21:59.676Z,60.42
2023-05-10T00:22:59.668Z,49.15
2023-05-10T00:23:59.647Z,48.34
2023-05-10T00:24:59.693Z,48.98
2023-05-10T00:25:59.652Z,51.88
2023-05-10T00:26:59.618Z,48.98
2023-05-10T00:27:59.626Z,50.11
2023-05-10T00:28:59.629Z,50.11
2023-05-10T00:29:59.573Z,63.16
2023-05-10T00:30:59.583Z,47.53
2023-05-10T00:31:59.649Z,56.72
2023-05-10T00:32:59.604Z,48.50
2023-05-10T00:33:59.554Z,49.63
2023-05-10T00:34:59.520Z,53.98
2023-05-10T00:35:59.549Z,51.56
2023-05-10T00:36:59.502Z,47.05
2023-05-10T00:37:59.515Z,48.02
2023-05-10T00:38:59.494Z,53.50
2023-05-10T00:39:59.484Z,55.91
2023-05-10T00:41:31.888Z,50.60
2023-05-10T00:42:33.944Z,56.56
2023-05-10T00:42:59.456Z,50.11
2023-05-10T00:43:59.546Z,52.53
2023-05-10T00:44:59.451Z,49.47
2023-05-10T00:45:59.466Z,61.55
2023-05-10T00:46:59.482Z,49.95
2023-05-10T00:47:59.392Z,51.72
2023-05-10T00:48:59.362Z,58.81
2023-05-10T00:50:00.063Z,58.81
2023-05-10T00:50:59.325Z,53.01
2023-05-10T00:51:59.308Z,59.14
2023-05-10T00:52:59.293Z,57.04
2023-05-10T00:53:59.339Z,52.53
2023-05-10T00:55:00.016Z,53.33
2023-05-10T00:55:59.267Z,56.40
2023-05-10T00:56:59.250Z,51.88
2023-05-10T00:57:59.218Z,52.85
2023-05-10T00:58:59.451Z,55.11
2023-05-10T00:59:59.223Z,51.24
2023-05-10T01:00:59.252Z,53.82
2023-05-10T01:01:59.227Z,56.72
2023-05-10T01:02:59.276Z,62.36
2023-05-10T01:03:59.143Z,58.33
2023-05-10T01:04:59.235Z,53.66
2023-05-10T01:05:59.138Z,54.30
2023-05-10T01:06:59.167Z,58.65
2023-05-10T01:07:59.140Z,49.95
2023-05-10T01:08:59.091Z,49.95
2023-05-10T01:09:59.153Z,53.50
2023-05-10T01:10:59.093Z,51.40
2023-05-10T01:11:59.078Z,53.50
2023-05-10T01:12:59.149Z,63.33
2023-05-10T01:13:59.084Z,54.30
2023-05-10T01:14:59.039Z,51.88
2023-05-10T01:15:59.076Z,56.40
2023-05-10T01:16:58.995Z,57.36
2023-05-10T01:17:59.089Z,59.14
2023-05-10T01:18:58.981Z,54.62
2023-05-10T01:19:59.010Z,50.92
2023-05-10T01:20:58.984Z,56.40
2023-05-10T01:21:58.979Z,52.69
2023-05-10T01:22:59.083Z,50.92
2023-05-10T01:23:58.952Z,49.79
2023-05-10T01:24:58.902Z,61.07
2023-05-10T01:25:58.943Z,51.88
2023-05-10T01:26:58.981Z,49.47
2023-05-10T01:27:58.911Z,54.79
2023-05-10T01:28:58.849Z,48.34
2023-05-10T01:30:21.820Z,48.02
2023-05-10T01:31:00.905Z,63.65
2023-05-10T01:31:58.885Z,58.33
2023-05-10T01:32:58.837Z,61.71
2023-05-10T01:33:58.932Z,57.36
2023-05-10T01:34:58.857Z,48.82
2023-05-10T01:35:58.794Z,49.31
2023-05-10T01:36:58.802Z,50.11
2023-05-10T01:37:58.869Z,54.14
2023-05-10T01:38:58.805Z,54.30
2023-05-10T01:39:58.758Z,53.17
2023-05-10T01:40:58.757Z,53.98
2023-05-10T01:41:58.697Z,52.05
2023-05-10T01:42:58.742Z,48.98
2023-05-10T01:43:59.730Z,59.78
2023-05-10T01:44:58.689Z,52.05
2023-05-10T01:45:58.673Z,56.56
2023-05-10T01:46:58.716Z,61.39
2023-05-10T01:47:58.654Z,54.46
2023-05-10T01:48:58.672Z,53.17
2023-05-10T01:49:58.655Z,55.11
2023-05-10T01:50:58.608Z,61.23
2023-05-10T01:51:58.584Z,51.24
2023-05-10T01:52:58.576Z,54.14
2023-05-10T01:53:58.591Z,63.16
2023-05-10T01:54:58.566Z,49.63
2023-05-10T01:55:58.586Z,50.60
2023-05-10T01:56:58.542Z,53.01
2023-05-10T01:57:58.531Z,49.63
2023-05-10T01:58:58.517Z,49.31
2023-05-10T01:59:58.526Z,48.82
2023-05-10T02:00:58.790Z,48.82
2023-05-10T02:01:58.497Z,59.94
2023-05-10T02:02:58.520Z,51.24
2023-05-10T02:03:58.545Z,52.05
2023-05-10T02:04:58.441Z,58.81
2023-05-10T02:05:58.638Z,59.30
2023-05-10T02:06:58.437Z,59.78
2023-05-10T02:07:59.387Z,60.59
2023-05-10T02:08:58.407Z,53.66
2023-05-10T02:09:58.480Z,53.33
2023-05-10T02:10:58.404Z,55.43
2023-05-10T02:11:59.402Z,61.87
2023-05-10T02:12:58.424Z,57.20
2023-05-10T02:13:58.441Z,64.94
2023-05-10T02:14:58.387Z,66.39
2023-05-10T02:15:58.373Z,67.19
2023-05-10T02:16:58.443Z,66.39
2023-05-10T02:17:58.406Z,67.68
2023-05-10T02:18:58.331Z,64.94
2023-05-10T02:19:58.409Z,58.49
2023-05-10T02:20:58.363Z,56.72
2023-05-10T02:21:58.332Z,58.65
2023-05-10T02:22:58.327Z,59.14
2023-05-10T02:23:58.289Z,65.90
2023-05-10T02:24:58.355Z,64.61
2023-05-10T02:25:58.432Z,63.00
2023-05-10T02:26:58.265Z,62.36
2023-05-10T02:27:58.237Z,63.49
2023-05-10T02:28:58.310Z,64.94
2023-05-10T02:29:58.247Z,62.84
2023-05-10T02:30:58.192Z,61.87
2023-05-10T02:31:58.271Z,59.30
2023-05-10T02:32:58.216Z,59.14
2023-05-10T02:33:58.200Z,65.26
2023-05-10T02:34:58.220Z,59.30
2023-05-10T02:35:58.188Z,62.20
2023-05-10T02:36:58.101Z,63.33
2023-05-10T02:37:58.129Z,62.84
2023-05-10T02:38:58.135Z,63.97
2023-05-10T02:39:58.114Z,61.39
2023-05-10T02:40:58.106Z,58.81
2023-05-10T02:41:58.110Z,64.29
2023-05-10T02:42:58.126Z,66.71
2023-05-10T02:43:58.060Z,64.61
2023-05-10T02:44:58.065Z,61.39
2023-05-10T02:45:58.093Z,59.78
2023-05-10T02:46:58.054Z,58.81
2023-05-10T02:47:58.112Z,66.23
2023-05-10T02:48:58.041Z,67.68
2023-05-10T02:49:58.036Z,61.39
2023-05-10T02:50:57.989Z,54.95
2023-05-10T02:51:57.955Z,60.10
2023-05-10T02:52:58.005Z,61.71
2023-05-10T02:53:58.023Z,65.42
2023-05-10T02:54:57.974Z,67.03
2023-05-10T02:55:57.981Z,68.16
2023-05-10T02:56:57.915Z,71.06
2023-05-10T02:57:57.902Z,68.64
2023-05-10T02:58:57.938Z,53.66
2023-05-10T02:59:57.953Z,64.61
2023-05-10T03:00:57.911Z,63.49
2023-05-10T03:01:57.967Z,63.16
2023-05-10T03:02:57.934Z,60.10
2023-05-10T03:03:57.948Z,58.81
2023-05-10T03:04:57.979Z,60.75
2023-05-10T03:05:57.885Z,60.91
2023-05-10T03:06:57.801Z,64.78
2023-05-10T03:07:57.820Z,67.19
2023-05-10T03:08:57.980Z,65.90
2023-05-10T03:09:57.805Z,66.55
2023-05-10T03:10:57.831Z,66.06
2023-05-10T03:11:57.768Z,63.00
2023-05-10T03:12:57.769Z,67.35
2023-05-10T03:13:57.728Z,69.13
2023-05-10T03:14:57.822Z,63.33
2023-05-10T03:15:57.781Z,64.29
2023-05-10T03:16:57.716Z,71.38
2023-05-10T03:17:57.729Z,68.48
2023-05-10T03:18:57.745Z,67.19
2023-05-10T03:19:57.704Z,69.93
2023-05-10T03:20:57.721Z,66.06
2023-05-10T03:21:57.668Z,69.29
2023-05-10T03:22:57.618Z,68.64
2023-05-10T03:23:57.639Z,70.90
2023-05-10T03:24:57.630Z,68.16
2023-05-10T03:25:57.645Z,68.48
2023-05-10T03:26:57.580Z,68.16
2023-05-10T03:27:57.666Z,68.00
2023-05-10T03:28:57.574Z,66.23
2023-05-10T03:29:57.684Z,68.80
2023-05-10T03:30:57.788Z,68.16
2023-05-10T03:31:57.643Z,67.19
2023-05-10T03:32:58.558Z,68.48
2023-05-10T03:33:57.629Z,72.03
2023-05-10T03:34:57.564Z,72.19
2023-05-10T03:35:57.556Z,70.25
2023-05-10T03:37:31.665Z,71.70
2023-05-10T03:37:57.591Z,67.19
2023-05-10T03:38:57.520Z,67.84
2023-05-10T03:39:57.562Z,69.13
2023-05-10T03:40:57.517Z,73.15
2023-05-10T03:41:57.470Z,72.99
2023-05-10T03:42:57.534Z,72.83
2023-05-10T03:43:57.460Z,72.51
2023-05-10T03:44:57.522Z,68.96
2023-05-10T03:45:57.464Z,69.93
2023-05-10T03:46:57.487Z,72.03
2023-05-10T03:47:57.510Z,73.48
2023-05-10T03:48:57.435Z,70.74
2023-05-10T03:49:57.396Z,72.83
2023-05-10T03:50:57.419Z,69.77
2023-05-10T03:51:57.438Z,71.38
2023-05-10T03:52:57.460Z,71.54
2023-05-10T03:53:57.430Z,69.61
2023-05-10T03:54:57.350Z,66.23
2023-05-10T03:55:57.346Z,72.99
2023-05-10T03:56:57.402Z,72.51
2023-05-10T03:57:57.361Z,69.13
2023-05-10T03:58:57.302Z,69.77
2023-05-10T03:59:57.309Z,67.19
2023-05-10T04:00:57.302Z,72.67
2023-05-10T04:01:57.297Z,70.09
2023-05-10T04:02:57.406Z,68.32
2023-05-10T04:03:57.529Z,70.74
2023-05-10T04:04:57.243Z,71.87
2023-05-10T04:05:57.392Z,72.03
2023-05-10T04:06:57.260Z,70.90
2023-05-10T04:07:57.233Z,69.77
2023-05-10T04:08:57.227Z,72.03
2023-05-10T04:09:57.928Z,72.35
2023-05-10T04:10:57.233Z,72.35
2023-05-10T04:11:57.178Z,73.96
2023-05-10T04:12:57.224Z,71.70
2023-05-10T04:13:57.168Z,73.48
2023-05-10T04:14:57.165Z,72.67
2023-05-10T04:15:57.915Z,70.74
2023-05-10T04:16:57.200Z,69.61
2023-05-10T04:17:57.162Z,73.32
2023-05-10T04:18:57.130Z,72.19
2023-05-10T04:19:57.085Z,72.03
2023-05-10T04:20:57.108Z,73.64
2023-05-10T04:21:57.941Z,68.32
2023-05-10T04:22:57.056Z,71.87
2023-05-10T04:23:57.311Z,72.35
2023-05-10T04:24:58.069Z,72.19
2023-05-10T04:25:57.176Z,72.19
2023-05-10T04:26:57.867Z,72.99
2023-05-10T04:27:58.152Z,73.80
2023-05-10T04:28:57.155Z,73.96
2023-05-10T04:29:57.029Z,73.80
2023-05-10T04:30:57.052Z,72.67
2023-05-10T04:31:57.027Z,69.77
2023-05-10T04:32:57.077Z,72.19
2023-05-10T04:33:57.021Z,73.48
2023-05-10T04:34:56.964Z,71.22
2023-05-10T04:35:57.104Z,73.96
2023-05-10T04:36:56.960Z,75.57
2023-05-10T04:37:57.114Z,73.32
2023-05-10T04:38:56.934Z,75.89
2023-05-10T04:39:57.541Z,75.57
2023-05-10T04:40:56.953Z,74.44
2023-05-10T04:41:56.893Z,74.93
2023-05-10T04:42:56.926Z,73.96
2023-05-10T04:43:56.830Z,75.41
2023-05-10T04:44:56.871Z,72.99
2023-05-10T04:45:56.866Z,70.74
2023-05-10T04:46:56.894Z,72.35
2023-05-10T04:47:56.821Z,74.60
2023-05-10T04:48:56.759Z,77.34
2023-05-10T04:49:56.803Z,72.99
2023-05-10T04:50:56.767Z,72.19
2023-05-10T04:51:56.743Z,72.99
2023-05-10T04:52:56.787Z,72.67
2023-05-10T04:54:05.871Z,72.99
2023-05-10T04:54:58.764Z,74.12
2023-05-10T04:55:56.759Z,72.35
2023-05-10T04:56:56.781Z,72.67
2023-05-10T04:57:56.743Z,72.19
2023-05-10T04:58:56.697Z,75.89
2023-05-10T04:59:56.741Z,73.48
2023-05-10T05:00:56.880Z,72.03
2023-05-10T05:01:56.674Z,73.64
2023-05-10T05:02:56.723Z,71.70
2023-05-10T05:03:56.889Z,66.06
2023-05-10T05:04:56.664Z,73.64
2023-05-10T05:05:56.675Z,72.99
2023-05-10T05:06:56.649Z,71.54
2023-05-10T05:07:56.612Z,73.48
2023-05-10T05:08:56.670Z,71.22
2023-05-10T05:09:56.697Z,75.73
2023-05-10T05:10:56.626Z,68.64
2023-05-10T05:11:56.562Z,71.06
2023-05-10T05:12:56.602Z,75.89
2023-05-10T05:13:56.496Z,73.32
2023-05-10T05:14:56.623Z,73.48
2023-05-10T05:15:56.617Z,75.25
2023-05-10T05:16:56.493Z,71.87
2023-05-10T05:17:56.524Z,73.32
2023-05-10T05:18:56.512Z,70.74
2023-05-10T05:19:56.487Z,72.35
2023-05-10T05:20:56.469Z,70.90
2023-05-10T05:21:56.428Z,72.51
2023-05-10T05:22:56.578Z,73.48
2023-05-10T05:23:56.402Z,74.28
2023-05-10T05:24:56.403Z,72.67
2023-05-10T05:25:56.373Z,72.99
2023-05-10T05:26:56.428Z,73.48
2023-05-10T05:27:56.431Z,71.70
2023-05-10T05:28:56.378Z,71.06
2023-05-10T05:29:56.348Z,74.77
2023-05-10T05:30:56.372Z,72.51
2023-05-10T05:31:56.389Z,74.60
2023-05-10T05:32:56.369Z,73.48
2023-05-10T05:33:56.311Z,73.64
2023-05-10T05:34:56.329Z,74.12
2023-05-10T05:35:56.328Z,74.44
2023-05-10T05:36:56.278Z,73.64
2023-05-10T05:37:56.225Z,72.67
2023-05-10T05:38:56.312Z,72.99
2023-05-10T05:39:56.305Z,72.99
2023-05-10T05:40:56.241Z,73.15
2023-05-10T05:41:56.226Z,71.38
2023-05-10T05:42:56.237Z,73.80
2023-05-10T05:43:56.228Z,72.51
2023-05-10T05:44:56.193Z,73.96
2023-05-10T05:45:56.279Z,73.80
2023-05-10T05:46:57.025Z,72.99
2023-05-10T05:47:56.261Z,73.48
2023-05-10T05:48:56.147Z,75.09
2023-05-10T05:49:56.129Z,72.51
2023-05-10T05:50:56.135Z,72.67
2023-05-10T05:51:56.093Z,73.64
2023-05-10T05:52:56.104Z,72.51
2023-05-10T05:53:56.132Z,67.84
2023-05-10T05:54:57.011Z,73.64
2023-05-10T05:55:56.064Z,70.74
2023-05-10T05:56:56.115Z,68.16
2023-05-10T05:57:56.085Z,72.99
2023-05-10T05:58:56.079Z,70.74
2023-05-10T05:59:56.088Z,74.60
2023-05-10T06:00:55.995Z,71.38
2023-05-10T06:01:56.058Z,72.99
2023-05-10T06:02:56.101Z,71.22
2023-05-10T06:03:56.217Z,70.42
2023-05-10T06:04:55.986Z,68.16
2023-05-10T06:05:56.030Z,70.74
2023-05-10T06:06:55.981Z,69.45
2023-05-10T06:07:56.085Z,68.64
2023-05-10T06:08:56.465Z,71.22
2023-05-10T06:09:55.947Z,72.03
2023-05-10T06:10:55.988Z,72.99
2023-05-10T06:11:55.903Z,72.51
2023-05-10T06:12:55.987Z,68.64
2023-05-10T06:13:56.026Z,69.29
2023-05-10T06:14:55.937Z,69.93
2023-05-10T06:15:55.966Z,72.19
2023-05-10T06:16:56.045Z,70.74
2023-05-10T06:17:55.895Z,71.70
2023-05-10T06:18:55.886Z,69.45
2023-05-10T06:19:55.888Z,69.45
2023-05-10T06:20:55.871Z,67.35
2023-05-10T06:21:55.850Z,71.54
2023-05-10T06:22:55.892Z,72.19
2023-05-10T06:23:55.791Z,70.09
2023-05-10T06:24:55.840Z,69.13
2023-05-10T06:25:55.829Z,69.29
2023-05-10T06:26:55.763Z,73.80
2023-05-10T06:28:29.083Z,72.19
2023-05-10T06:29:28.242Z,69.29
2023-05-10T06:30:02.168Z,71.06
2023-05-10T06:30:57.776Z,73.32
2023-05-10T06:31:55.961Z,73.32
2023-05-10T06:32:55.740Z,68.16
2023-05-10T06:33:56.832Z,70.25
2023-05-10T06:34:56.931Z,73.32
2023-05-10T06:35:55.706Z,70.74
2023-05-10T06:36:55.666Z,72.03
2023-05-10T06:37:55.653Z,72.51
2023-05-10T06:38:55.654Z,70.74
2023-05-10T06:39:55.642Z,69.29
2023-05-10T06:40:55.771Z,71.22
2023-05-10T06:41:56.657Z,72.99
2023-05-10T06:42:55.588Z,70.58
2023-05-10T06:43:55.576Z,71.38
2023-05-10T06:44:55.607Z,70.58
2023-05-10T06:45:55.677Z,70.90
2023-05-10T06:46:55.604Z,68.00
2023-05-10T06:47:55.615Z,69.61
2023-05-10T06:48:55.546Z,72.35
2023-05-10T06:49:55.584Z,67.51
2023-05-10T06:50:55.531Z,72.19
2023-05-10T06:51:55.507Z,69.29
2023-05-10T06:52:55.496Z,72.67
2023-05-10T06:53:55.522Z,70.58
2023-05-10T06:54:55.725Z,72.99
2023-05-10T06:55:55.495Z,70.90
2023-05-10T06:56:55.471Z,70.58
2023-05-10T06:57:55.561Z,68.80
2023-05-10T06:58:56.458Z,68.16
2023-05-10T06:59:55.446Z,66.71
2023-05-10T07:00:55.505Z,69.93
2023-05-10T07:01:55.526Z,71.22
2023-05-10T07:02:55.446Z,68.48
2023-05-10T07:03:55.423Z,72.35
2023-05-10T07:04:55.514Z,66.06
2023-05-10T07:05:55.411Z,72.35
2023-05-10T07:06:55.394Z,73.32
2023-05-10T07:07:55.416Z,68.32
2023-05-10T07:08:55.383Z,70.09
2023-05-10T07:09:55.357Z,69.13
2023-05-10T07:10:55.311Z,69.61
2023-05-10T07:11:55.327Z,69.13
2023-05-10T07:12:55.372Z,69.61
2023-05-10T07:13:55.304Z,67.03
2023-05-10T07:14:55.285Z,67.68
2023-05-10T07:15:55.282Z,72.19
2023-05-10T07:16:55.409Z,72.19
2023-05-10T07:17:55.441Z,68.64
2023-05-10T07:18:55.446Z,70.74
2023-05-10T07:19:55.246Z,69.61
2023-05-10T07:20:55.273Z,70.90
2023-05-10T07:21:55.358Z,71.70
2023-05-10T07:22:55.229Z,70.09
2023-05-10T07:23:55.587Z,71.22
2023-05-10T07:24:55.221Z,66.23
2023-05-10T07:25:55.146Z,68.96
2023-05-10T07:26:55.222Z,70.58
2023-05-10T07:27:55.213Z,66.55
2023-05-10T07:28:55.144Z,68.96
2023-05-10T07:29:55.253Z,69.61
2023-05-10T07:30:55.241Z,70.25
2023-05-10T07:31:57.927Z,68.96
2023-05-10T07:32:55.180Z,70.25
2023-05-10T07:33:55.159Z,68.64
2023-05-10T07:34:55.072Z,70.74
2023-05-10T07:35:55.141Z,69.45
2023-05-10T07:36:55.112Z,74.28
2023-05-10T07:37:55.083Z,67.51
2023-05-10T07:38:55.043Z,67.19
2023-05-10T07:39:56.038Z,68.64
2023-05-10T07:40:55.018Z,69.77
2023-05-10T07:41:55.053Z,69.29
2023-05-10T07:42:55.017Z,68.32
2023-05-10T07:43:54.995Z,68.16
2023-05-10T07:44:54.977Z,72.51
2023-05-10T07:45:56.436Z,70.25
2023-05-10T07:46:55.949Z,66.71
2023-05-10T07:47:55.000Z,70.25
2023-05-10T07:48:55.149Z,70.09
2023-05-10T07:49:54.923Z,70.58
2023-05-10T07:50:54.949Z,61.07
2023-05-10T07:51:54.912Z,69.77
2023-05-10T07:52:55.046Z,69.13
2023-05-10T07:53:54.853Z,69.13
2023-05-10T07:54:54.870Z,67.35
2023-05-10T07:55:54.867Z,69.45
2023-05-10T07:56:54.877Z,69.29
2023-05-10T07:57:54.842Z,66.55
2023-05-10T07:58:54.869Z,69.93
2023-05-10T07:59:54.857Z,69.61
2023-05-10T08:00:54.914Z,67.19
2023-05-10T08:01:55.119Z,68.48
2023-05-10T08:02:54.842Z,69.45
2023-05-10T08:03:55.313Z,65.74
2023-05-10T08:04:55.840Z,68.16
2023-05-10T08:05:54.758Z,66.06
2023-05-10T08:06:54.687Z,70.09
2023-05-10T08:07:54.730Z,67.19
2023-05-10T08:08:54.717Z,69.13
2023-05-10T08:09:54.817Z,66.06
2023-05-10T08:10:55.585Z,68.16
2023-05-10T08:11:54.811Z,68.48
2023-05-10T08:12:55.582Z,68.80
2023-05-10T08:13:54.666Z,64.29
2023-05-10T08:14:55.136Z,65.58
2023-05-10T08:15:54.871Z,63.00
2023-05-10T08:16:54.825Z,64.61
2023-05-10T08:17:54.654Z,66.71
2023-05-10T08:18:54.643Z,67.03
2023-05-10T08:19:54.647Z,63.16
2023-05-10T08:20:54.712Z,67.35
2023-05-10T08:21:54.565Z,69.77
2023-05-10T08:22:55.120Z,67.19
2023-05-10T08:23:54.552Z,67.19
2023-05-10T08:24:55.579Z,68.96
2023-05-10T08:25:54.564Z,67.03
2023-05-10T08:26:55.930Z,65.42
2023-05-10T08:27:54.492Z,68.16
2023-05-10T08:28:54.537Z,66.06
2023-05-10T08:29:55.364Z,66.55
2023-05-10T08:30:55.047Z,67.84
2023-05-10T08:31:54.778Z,66.23
2023-05-10T08:32:54.411Z,66.55
2023-05-10T08:33:54.361Z,64.78
2023-05-10T08:34:54.420Z,66.55
2023-05-10T08:35:54.553Z,65.74
2023-05-10T08:36:54.672Z,68.00
2023-05-10T08:37:54.547Z,67.03
2023-05-10T08:38:54.623Z,64.78
2023-05-10T08:39:54.686Z,66.71
2023-05-10T08:40:55.020Z,63.81
2023-05-10T08:41:54.413Z,66.71
2023-05-10T08:42:54.358Z,65.74
2023-05-10T08:43:54.376Z,67.19
2023-05-10T08:44:54.525Z,69.29
2023-05-10T08:45:54.326Z,67.35
2023-05-10T08:46:54.420Z,65.90
2023-05-10T08:47:55.144Z,65.10
2023-05-10T08:48:54.540Z,60.26
2023-05-10T08:49:54.305Z,65.74
2023-05-10T08:50:54.305Z,66.71
2023-05-10T08:51:54.344Z,66.55
2023-05-10T08:52:54.284Z,65.58
2023-05-10T08:53:54.289Z,64.61
2023-05-10T08:54:54.186Z,63.16
2023-05-10T08:55:55.070Z,63.49
2023-05-10T08:56:54.190Z,66.39
2023-05-10T08:57:54.194Z,66.71
2023-05-10T08:58:54.144Z,69.29
2023-05-10T08:59:54.154Z,66.55
2023-05-10T09:00:54.184Z,68.32
2023-05-10T09:01:54.102Z,68.16
2023-05-10T09:02:54.235Z,63.00
2023-05-10T09:03:54.109Z,66.06
2023-05-10T09:04:54.154Z,66.71
2023-05-10T09:05:54.169Z,64.45
2023-05-10T09:06:54.089Z,65.58
2023-05-10T09:07:54.106Z,65.26
2023-05-10T09:08:54.058Z,68.00
2023-05-10T09:09:54.152Z,68.48
2023-05-10T09:10:54.042Z,61.87
2023-05-10T09:11:54.005Z,64.78
2023-05-10T09:12:54.124Z,63.97
2023-05-10T09:13:54.106Z,63.65
2023-05-10T09:14:54.084Z,65.74
2023-05-10T09:15:54.979Z,64.78
2023-05-10T09:16:54.049Z,68.32
2023-05-10T09:17:54.011Z,60.75
2023-05-10T09:18:54.002Z,64.45
2023-05-10T09:19:53.897Z,66.55
2023-05-10T09:20:54.052Z,65.42
2023-05-10T09:21:53.980Z,63.49
2023-05-10T09:22:54.013Z,64.45
2023-05-10T09:24:27.353Z,64.61
2023-05-10T09:24:54.054Z,68.48
2023-05-10T09:25:53.913Z,62.68
2023-05-10T09:26:54.910Z,65.10
2023-05-10T09:27:53.822Z,67.35
2023-05-10T09:28:53.849Z,63.65
2023-05-10T09:29:54.010Z,65.42
2023-05-10T09:30:53.993Z,65.90
2023-05-10T09:31:53.969Z,64.94
2023-05-10T09:32:53.854Z,65.26
2023-05-10T09:33:53.785Z,68.16
2023-05-10T09:34:53.767Z,63.49
2023-05-10T09:35:53.860Z,62.52
2023-05-10T09:36:53.791Z,61.87
2023-05-10T09:37:53.763Z,59.46
2023-05-10T09:38:53.984Z,63.65
2023-05-10T09:39:53.720Z,65.74
2023-05-10T09:40:53.723Z,64.45
2023-05-10T09:41:53.699Z,62.04
2023-05-10T09:42:53.694Z,60.42
2023-05-10T09:43:53.646Z,63.49
2023-05-10T09:44:53.644Z,64.13
2023-05-10T09:45:53.726Z,66.71
2023-05-10T09:46:53.678Z,65.74
2023-05-10T09:47:53.740Z,68.16
2023-05-10T09:48:53.649Z,68.32
2023-05-10T09:49:54.482Z,67.03
2023-05-10T09:50:53.641Z,66.06
2023-05-10T09:51:53.611Z,68.48
2023-05-10T09:52:53.569Z,66.71
2023-05-10T09:53:53.606Z,68.64
2023-05-10T09:54:53.587Z,66.06
2023-05-10T09:55:54.457Z,65.58
2023-05-10T09:56:53.548Z,68.16
2023-05-10T09:57:53.639Z,66.06
2023-05-10T09:58:53.548Z,70.90
2023-05-10T09:59:53.519Z,68.16
2023-05-10T10:00:53.492Z,68.96
2023-05-10T10:01:53.522Z,66.39
2023-05-10T10:02:53.789Z,68.16
2023-05-10T10:03:53.496Z,68.96
2023-05-10T10:04:53.487Z,66.23
2023-05-10T10:05:53.445Z,62.52
2023-05-10T10:06:53.397Z,65.58
2023-05-10T10:07:53.508Z,63.65
2023-05-10T10:08:55.609Z,63.97
2023-05-10T10:09:53.905Z,62.68
2023-05-10T10:10:53.342Z,64.78
2023-05-10T10:11:54.564Z,64.94
2023-05-10T10:12:53.373Z,61.39
2023-05-10T10:13:53.509Z,66.23
2023-05-10T10:14:53.351Z,67.19
2023-05-10T10:15:53.399Z,67.19
2023-05-10T10:17:05.889Z,62.04
2023-05-10T10:17:55.465Z,63.00
2023-05-10T10:18:53.332Z,66.71
2023-05-10T10:19:53.282Z,64.78
2023-05-10T10:20:53.366Z,65.26
2023-05-10T10:21:53.236Z,62.68
2023-05-10T10:22:53.276Z,60.91
2023-05-10T10:23:53.262Z,61.87
2023-05-10T10:24:53.202Z,64.45
2023-05-10T10:25:53.153Z,67.03
2023-05-10T10:26:53.173Z,57.85
2023-05-10T10:27:53.549Z,63.49
2023-05-10T10:28:53.190Z,63.49
2023-05-10T10:29:53.189Z,64.45
2023-05-10T10:30:53.117Z,59.94
2023-05-10T10:31:53.349Z,65.42
2023-05-10T10:32:53.660Z,63.49
2023-05-10T10:33:53.160Z,61.71
2023-05-10T10:34:53.139Z,63.49
2023-05-10T10:35:53.126Z,63.97
2023-05-10T10:36:53.129Z,63.00
2023-05-10T10:37:53.243Z,62.52
2023-05-10T10:38:53.066Z,58.17
2023-05-10T10:39:53.080Z,61.87
2023-05-10T10:40:53.031Z,60.26
2023-05-10T10:41:53.016Z,62.68
2023-05-10T10:42:53.035Z,63.33
2023-05-10T10:43:53.066Z,65.58
2023-05-10T10:44:53.011Z,64.61
2023-05-10T10:45:52.967Z,68.32
2023-05-10T10:46:53.063Z,67.19
2023-05-10T10:47:53.024Z,66.23
2023-05-10T10:48:53.003Z,66.39
2023-05-10T10:49:53.007Z,59.14
2023-05-10T10:50:52.971Z,62.04
2023-05-10T10:51:52.891Z,59.46
2023-05-10T10:52:52.970Z,63.33
2023-05-10T10:53:52.941Z,66.23
2023-05-10T10:54:52.962Z,62.04
2023-05-10T10:55:53.112Z,60.91
2023-05-10T10:56:52.931Z,64.94
2023-05-10T10:57:53.099Z,67.35
2023-05-10T10:58:52.932Z,65.26
2023-05-10T10:59:52.855Z,63.16
2023-05-10T11:00:52.831Z,65.74
2023-05-10T11:01:52.849Z,63.97
2023-05-10T11:02:52.925Z,68.64
2023-05-10T11:03:52.850Z,64.78
2023-05-10T11:04:52.821Z,67.51
2023-05-10T11:05:52.795Z,65.58
2023-05-10T11:06:52.733Z,65.74
2023-05-10T11:07:52.739Z,68.32
2023-05-10T11:08:52.762Z,66.87
2023-05-10T11:09:52.809Z,68.16
2023-05-10T11:10:52.762Z,68.80
2023-05-10T11:11:52.780Z,64.78
2023-05-10T11:12:52.705Z,66.23
2023-05-10T11:13:52.681Z,70.90
2023-05-10T11:14:52.755Z,67.84
2023-05-10T11:15:52.748Z,70.74
2023-05-10T11:16:52.686Z,67.84
2023-05-10T11:17:52.668Z,66.71
2023-05-10T11:18:52.720Z,64.13
2023-05-10T11:19:52.667Z,69.13
2023-05-10T11:20:52.654Z,69.13
2023-05-10T11:21:52.576Z,68.00
2023-05-10T11:22:52.617Z,68.00
2023-05-10T11:23:52.540Z,67.19
2023-05-10T11:24:52.575Z,61.55
2023-05-10T11:25:52.650Z,68.64
2023-05-10T11:26:52.634Z,65.26
2023-05-10T11:27:52.564Z,68.96
2023-05-10T11:28:52.570Z,65.74
2023-05-10T11:29:52.505Z,66.06
2023-05-10T11:30:52.557Z,63.49
2023-05-10T11:31:52.561Z,68.48
2023-05-10T11:32:52.531Z,69.29
2023-05-10T11:33:52.447Z,64.61
2023-05-10T11:34:52.553Z,65.58
2023-05-10T11:35:52.500Z,69.45
2023-05-10T11:36:52.433Z,70.25
2023-05-10T11:37:52.511Z,69.13
2023-05-10T11:38:52.468Z,70.74
2023-05-10T11:39:52.452Z,69.45
2023-05-10T11:40:52.367Z,66.23
2023-05-10T11:41:52.393Z,70.42
2023-05-10T11:42:52.426Z,70.58
2023-05-10T11:43:52.378Z,69.93
2023-05-10T11:44:52.437Z,72.19
2023-05-10T11:45:52.349Z,70.09
2023-05-10T11:46:52.415Z,69.13
2023-05-10T11:47:52.374Z,69.45
2023-05-10T11:48:52.323Z,70.58
2023-05-10T11:49:52.263Z,68.00
2023-05-10T11:50:52.520Z,69.77
2023-05-10T11:51:52.238Z,71.54
2023-05-10T11:52:52.261Z,69.45
2023-05-10T11:53:52.308Z,70.42
2023-05-10T11:54:52.929Z,70.09
2023-05-10T11:55:52.695Z,69.45
2023-05-10T11:56:52.292Z,69.93
2023-05-10T11:57:52.311Z,70.25
2023-05-10T11:58:52.323Z,72.03
2023-05-10T11:59:53.009Z,72.03
2023-05-10T12:00:52.168Z,69.93
2023-05-10T12:01:52.201Z,69.77
2023-05-10T12:02:52.196Z,70.25
2023-05-10T12:03:52.223Z,70.25
2023-05-10T12:04:52.374Z,65.90
2023-05-10T12:05:53.073Z,64.13
2023-05-10T12:06:52.145Z,69.29
2023-05-10T12:07:52.099Z,66.39
2023-05-10T12:08:52.125Z,70.58
2023-05-10T12:09:52.146Z,71.38
2023-05-10T12:10:52.052Z,69.77
2023-05-10T12:11:52.087Z,70.58
2023-05-10T12:12:52.110Z,72.03
2023-05-10T12:13:52.033Z,70.42
2023-05-10T12:14:52.086Z,74.12
2023-05-10T12:15:52.040Z,71.70
2023-05-10T12:16:51.990Z,70.74
2023-05-10T12:17:52.059Z,67.84
2023-05-10T12:18:52.095Z,72.03
2023-05-10T12:20:24.369Z,70.74
2023-05-10T12:20:52.220Z,72.35
2023-05-10T12:21:52.135Z,72.83
2023-05-10T12:22:51.999Z,69.77
2023-05-10T12:23:52.001Z,69.29
2023-05-10T12:24:52.004Z,67.84
2023-05-10T12:25:52.009Z,73.64
2023-05-10T12:26:52.076Z,69.77
2023-05-10T12:27:51.861Z,71.22
2023-05-10T12:28:51.873Z,75.73
2023-05-10T12:29:51.964Z,72.51
2023-05-10T12:30:51.954Z,73.15
2023-05-10T12:31:51.887Z,73.48
2023-05-10T12:32:52.072Z,73.15
2023-05-10T12:33:51.830Z,71.54
2023-05-10T12:34:51.956Z,73.96
2023-05-10T12:35:51.835Z,73.15
2023-05-10T12:36:51.863Z,72.51
2023-05-10T12:37:51.857Z,75.09
2023-05-10T12:38:51.755Z,73.32
2023-05-10T12:39:51.827Z,73.96
2023-05-10T12:40:52.813Z,72.83
2023-05-10T12:41:51.749Z,71.70
2023-05-10T12:42:51.755Z,73.64
2023-05-10T12:43:51.729Z,72.99
2023-05-10T12:44:51.801Z,73.96
2023-05-10T12:45:52.206Z,73.96
2023-05-10T12:46:51.964Z,72.51
2023-05-10T12:47:51.796Z,72.83
2023-05-10T12:49:00.238Z,74.12
2023-05-10T12:49:53.609Z,72.99
2023-05-10T12:50:51.683Z,75.57
2023-05-10T12:51:51.659Z,74.77